createdAt,value
2023-05-10T00:02:05.932Z,13.6
2023-05-10T00:04:10.886Z,13.5
2023-05-10T00:06:12.640Z,13.6
2023-05-10T00:08:14.417Z,13.6
2023-05-10T00:12:17.979Z,13.6
2023-05-10T00:14:19.751Z,13.6
2023-05-10T00:16:21.565Z,13.6
2023-05-10T00:18:26.556Z,13.6
2023-05-10T00:20:28.347Z,13.6
2023-05-10T00:22:30.149Z,13.7
2023-05-10T00:23:32.652Z,13.6
2023-05-10T00:25:34.436Z,13.5
2023-05-10T00:27:36.192Z,13.7
2023-05-10T00:29:38.001Z,13.6
2023-05-10T00:31:43.037Z,13.6
2023-05-10T00:33:44.779Z,13.6
2023-05-10T00:35:46.576Z,13.6
2023-05-10T00:37:48.357Z,13.5
2023-05-10T00:39:50.109Z,13.5
2023-05-10T00:41:51.911Z,13.6
2023-05-10T00:43:53.657Z,13.6
2023-05-10T00:48:00.522Z,13.5
2023-05-10T00:52:04.057Z,13.5
2023-05-10T00:54:05.812Z,13.5
2023-05-10T00:56:07.595Z,13.6
2023-05-10T00:58:09.360Z,13.5
2023-05-10T01:12:25.186Z,13.7
2023-05-10T01:19:36.193Z,13.5
2023-05-10T01:23:39.753Z,13.6
2023-05-10T01:25:41.513Z,13.6
2023-05-10T01:27:46.545Z,13.5
2023-05-10T01:29:50.270Z,13.7
2023-05-10T01:31:50.141Z,13.5
2023-05-10T01:33:53.456Z,13.6
2023-05-10T01:37:56.950Z,13.7
2023-05-10T01:39:58.743Z,13.7
2023-05-10T01:42:03.764Z,13.6
2023-05-10T01:44:05.533Z,13.7
2023-05-10T01:46:07.334Z,13.7
2023-05-10T01:48:09.190Z,13.6
2023-05-10T01:50:10.884Z,13.8
2023-05-10T01:52:12.666Z,13.7
2023-05-10T01:54:14.444Z,13.8
2023-05-10T01:58:21.254Z,13.6
2023-05-10T02:00:23.027Z,13.8
2023-05-10T02:02:24.856Z,13.6
2023-05-10T02:04:26.589Z,13.8
2023-05-10T02:06:28.378Z,13.6
2023-05-10T02:10:35.161Z,13.8
2023-05-10T02:12:36.972Z,13.7
2023-05-10T02:14:38.721Z,13.8
2023-05-10T02:17:07.331Z,13.8
2023-05-10T02:23:15.886Z,13.8
2023-05-10T02:25:17.661Z,13.9
2023-05-10T02:27:19.473Z,13.9
2023-05-10T02:29:21.233Z,13.8
2023-05-10T02:31:23.057Z,13.9
2023-05-10T02:33:24.764Z,13.8
2023-05-10T02:35:26.577Z,13.8
2023-05-10T02:37:31.582Z,13.9
2023-05-10T02:39:33.396Z,13.9
2023-05-10T02:41:35.154Z,13.8
2023-05-10T02:43:36.959Z,13.9
2023-05-10T02:45:38.746Z,13.9
2023-05-10T02:47:40.571Z,13.8
2023-05-10T02:49:42.324Z,13.9
2023-05-10T02:59:54.497Z,14
2023-05-10T03:01:56.468Z,13.9
2023-05-10T03:03:58.047Z,13.8
2023-05-10T03:08:04.900Z,13.9
2023-05-10T03:10:06.678Z,13.9
2023-05-10T03:11:09.157Z,13.9
2023-05-10T03:15:12.746Z,13.8
2023-05-10T03:19:19.588Z,13.8
2023-05-10T03:21:21.334Z,13.9
2023-05-10T03:23:23.152Z,13.9
2023-05-10T03:25:24.904Z,13.8
2023-05-10T03:31:30.297Z,14
2023-05-10T03:33:35.290Z,13.9
2023-05-10T03:35:37.112Z,13.9
2023-05-10T03:37:38.876Z,13.9
2023-05-10T03:39:40.690Z,13.9
2023-05-10T03:41:42.491Z,13.8
2023-05-10T03:43:44.222Z,13.9
2023-05-10T03:45:46.027Z,13.8
2023-05-10T03:47:51.108Z,13.9
2023-05-10T03:49:52.866Z,13.8
2023-05-10T03:51:54.654Z,13.9
2023-05-10T03:53:56.422Z,13.8
2023-05-10T04:07:12.915Z,13.8
2023-05-10T04:09:14.690Z,13.9
2023-05-10T04:11:16.464Z,13.8
2023-05-10T04:13:18.267Z,13.9
2023-05-10T04:15:23.303Z,13.8
2023-05-10T04:19:26.825Z,13.8
2023-05-10T04:27:33.988Z,13.8
2023-05-10T04:29:39.001Z,13.8
2023-05-10T04:31:40.798Z,13.9
2023-05-10T04:33:42.568Z,13.9
2023-05-10T04:35:44.352Z,13.8
2023-05-10T04:37:46.145Z,13.6
2023-05-10T04:39:47.937Z,13.7
2023-05-10T04:41:49.710Z,13.7
2023-05-10T04:43:54.751Z,13.8
2023-05-10T04:45:56.554Z,13.8
2023-05-10T04:47:58.389Z,13.6
2023-05-10T04:52:01.885Z,13.6
2023-05-10T04:54:06.471Z,13.5
2023-05-10T04:56:05.496Z,13.8
2023-05-10T05:03:16.641Z,13.5
2023-05-10T05:05:18.356Z,13.5
2023-05-10T05:07:20.150Z,13.6
2023-05-10T05:09:21.920Z,13.6
2023-05-10T05:11:26.946Z,13.4
2023-05-10T05:13:28.821Z,13.5
2023-05-10T05:15:30.521Z,13.4
2023-05-10T05:17:32.336Z,13.5
2023-05-10T05:19:34.112Z,13.4
2023-05-10T05:21:35.862Z,13.4
2023-05-10T05:25:42.703Z,13.5
2023-05-10T05:29:46.263Z,13.5
2023-05-10T05:31:48.083Z,13.5
2023-05-10T05:33:49.823Z,13.5
2023-05-10T05:37:53.407Z,13.5
2023-05-10T05:39:58.432Z,13.5
2023-05-10T05:42:00.209Z,13.5
2023-05-10T05:44:01.996Z,13.6
2023-05-10T05:46:03.818Z,13.5
2023-05-10T05:48:05.603Z,13.6
2023-05-10T05:52:09.149Z,13.7
2023-05-10T06:00:46.378Z,13.9
2023-05-10T06:02:48.274Z,13.8
2023-05-10T06:04:49.917Z,13.9
2023-05-10T06:06:54.954Z,13.9
2023-05-10T06:08:56.743Z,13.9
2023-05-10T06:10:58.530Z,13.9
2023-05-10T06:13:00.372Z,13.9
2023-05-10T06:17:03.932Z,14
2023-05-10T06:19:05.638Z,13.9
2023-05-10T06:21:10.684Z,13.9
2023-05-10T06:23:12.482Z,13.9
2023-05-10T06:25:14.537Z,13.7
2023-05-10T06:27:16.031Z,13.7
2023-05-10T06:31:19.640Z,13.8
2023-05-10T06:35:26.441Z,13.9
2023-05-10T06:37:28.235Z,13.8
2023-05-10T06:39:30.006Z,13.8
2023-05-10T06:41:31.771Z,13.8
2023-05-10T06:43:33.556Z,13.9
2023-05-10T06:49:42.140Z,13.8
2023-05-10T06:54:48.233Z,13.7
2023-05-10T06:56:50.040Z,13.9
2023-05-10T06:58:51.862Z,13.8
2023-05-10T07:00:53.811Z,13.8
2023-05-10T07:02:58.666Z,13.7
2023-05-10T07:05:02.796Z,13.8
2023-05-10T07:07:02.233Z,13.6
2023-05-10T07:09:04.018Z,13.6
2023-05-10T07:11:05.818Z,13.6
2023-05-10T07:13:07.627Z,13.5
2023-05-10T07:15:09.367Z,13.5
2023-05-10T07:17:14.446Z,13.5
2023-05-10T07:19:16.188Z,13.6
2023-05-10T07:23:19.735Z,13.6
2023-05-10T07:25:23.129Z,13.8
2023-05-10T07:27:24.824Z,13.7
2023-05-10T07:29:26.629Z,13.6
2023-05-10T07:31:31.674Z,13.9
2023-05-10T07:35:35.213Z,14
2023-05-10T07:37:36.995Z,14.2
2023-05-10T07:39:38.778Z,14.2
2023-05-10T07:41:40.582Z,14.5
2023-05-10T07:43:42.344Z,14.5
2023-05-10T07:45:47.422Z,14.5
2023-05-10T07:50:53.494Z,15.4
2023-05-10T07:52:55.255Z,15.5
2023-05-10T07:54:57.062Z,15.9
2023-05-10T07:56:58.854Z,16.2
2023-05-10T07:59:03.890Z,16
2023-05-10T08:01:05.710Z,16.2
2023-05-10T08:09:12.883Z,16.2
2023-05-10T08:11:14.689Z,16.2
2023-05-10T08:13:19.749Z,16.3
2023-05-10T08:15:21.528Z,16.3
2023-05-10T08:17:24.688Z,16
2023-05-10T08:19:25.128Z,16.2
2023-05-10T08:21:26.921Z,15.9
2023-05-10T08:23:28.726Z,16.1
2023-05-10T08:25:30.520Z,16
2023-05-10T08:31:39.293Z,16
2023-05-10T08:35:42.804Z,15.8
2023-05-10T08:37:44.588Z,15.6
2023-05-10T08:39:46.412Z,15.7
2023-05-10T08:45:55.062Z,15.5
2023-05-10T08:46:57.657Z,15.4
2023-05-10T08:48:59.373Z,15.5
2023-05-10T08:55:08.100Z,15.1
2023-05-10T08:57:09.865Z,15.4
2023-05-10T08:59:11.657Z,15.2
2023-05-10T09:03:15.240Z,14.9
2023-05-10T09:05:17.366Z,15
2023-05-10T09:07:18.844Z,15.1
2023-05-10T09:09:24.593Z,15
2023-05-10T09:11:26.376Z,15
2023-05-10T09:13:28.189Z,14.7
2023-05-10T09:19:33.584Z,14.8
2023-05-10T09:21:35.401Z,14.7
2023-05-10T09:23:40.413Z,14.9
2023-05-10T09:25:42.203Z,15
2023-05-10T09:27:44.054Z,14.8
2023-05-10T09:29:45.802Z,14.8
2023-05-10T09:33:49.416Z,15
2023-05-10T09:35:51.169Z,15.1
2023-05-10T09:37:56.252Z,15
2023-05-10T09:39:58.024Z,15
2023-05-10T09:41:59.827Z,15.2
2023-05-10T09:44:28.511Z,15.6
2023-05-10T09:46:30.319Z,15.6
2023-05-10T09:48:32.094Z,15.8
2023-05-10T09:50:37.123Z,16
2023-05-10T09:52:38.931Z,15.8
2023-05-10T09:54:40.728Z,15.8
2023-05-10T09:56:42.519Z,16
2023-05-10T10:08:56.814Z,15.9
2023-05-10T10:13:00.156Z,16.3
2023-05-10T10:15:01.940Z,16.3
2023-05-10T10:17:08.373Z,16.3
2023-05-10T10:19:08.806Z,16.9
2023-05-10T10:21:10.604Z,16.7
2023-05-10T10:23:12.913Z,16.8
2023-05-10T10:25:14.437Z,16.4
2023-05-10T10:29:17.826Z,16.4
2023-05-10T10:33:28.511Z,16
2023-05-10T10:35:26.470Z,16.1
2023-05-10T10:37:28.275Z,16.3
2023-05-10T10:40:34.658Z,16.4
2023-05-10T10:54:48.465Z,16.4
2023-05-10T11:07:02.485Z,17
2023-05-10T11:09:04.318Z,16.8
2023-05-10T11:11:06.080Z,17.2
2023-05-10T11:13:07.891Z,17.3
2023-05-10T11:23:20.129Z,17.3
2023-05-10T11:25:21.929Z,17
2023-05-10T11:27:23.626Z,17.3
2023-05-10T11:29:28.702Z,17.8
2023-05-10T11:34:35.015Z,18.6
2023-05-10T11:36:36.634Z,18.8
2023-05-10T11:38:38.442Z,18.8
2023-05-10T11:40:40.239Z,18.6
2023-05-10T11:42:45.289Z,18.6
2023-05-10T11:44:46.997Z,18.7
2023-05-10T11:46:48.814Z,18.9
2023-05-10T11:48:50.379Z,18.5
2023-05-10T11:57:00.419Z,18.7
2023-05-10T12:05:07.325Z,18.9
2023-05-10T12:17:20.620Z,18.5
2023-05-10T12:23:25.693Z,18.3
2023-05-10T12:29:34.250Z,18.2
2023-05-10T12:30:36.774Z,18
2023-05-10T12:34:40.369Z,18.2
2023-05-10T12:44:52.507Z,18.1
2023-05-10T12:46:54.215Z,18.2
2023-05-10T12:50:57.614Z,18.1
2023-05-10T12:53:02.681Z,17.9
2023-05-10T12:55:04.496Z,17.9
2023-05-10T12:57:06.303Z,17.9
2023-05-10T12:59:08.005Z,17.7
2023-05-10T13:03:11.561Z,17.7
2023-05-10T13:05:13.400Z,17.8
2023-05-10T13:09:20.148Z,18.1
2023-05-10T13:19:30.696Z,18.2
2023-05-10T13:23:37.535Z,18.2
2023-05-10T13:28:07.839Z,18.5
2023-05-10T13:30:09.768Z,18.5
2023-05-10T13:32:11.425Z,18.3
2023-05-10T13:34:16.301Z,18.5
2023-05-10T13:36:17.985Z,18.5
2023-05-10T13:38:22.393Z,18.4
2023-05-10T13:42:23.177Z,18.4
2023-05-10T13:44:24.973Z,18.2
2023-05-10T13:46:26.733Z,18.2
2023-05-10T13:50:33.366Z,18.9
2023-05-10T13:52:35.007Z,18.4
2023-05-10T13:54:36.711Z,18.5
2023-05-10T13:58:40.330Z,18.6
2023-05-10T14:00:42.117Z,18.6
2023-05-10T14:04:48.769Z,19.1
2023-05-10T14:06:50.461Z,19.2
2023-05-10T14:10:53.960Z,19.3
2023-05-10T14:12:55.754Z,18.9
2023-05-10T14:14:57.460Z,19
2023-05-10T14:17:02.511Z,19.8
2023-05-10T14:19:04.439Z,19.5
2023-05-10T14:21:05.914Z,19.4
2023-05-10T14:22:08.331Z,19.7
2023-05-10T14:34:21.768Z,19.9
2023-05-10T14:36:23.474Z,19.8
2023-05-10T14:40:26.883Z,19.6
2023-05-10T14:44:33.622Z,19.7
2023-05-10T14:46:35.573Z,19.7
2023-05-10T14:50:38.915Z,19.3
2023-05-10T14:58:48.960Z,18.9
2023-05-10T15:00:50.663Z,18.7
2023-05-10T15:02:52.419Z,18.2
2023-05-10T15:04:54.053Z,18.3
2023-05-10T15:06:55.766Z,18.2
2023-05-10T15:08:57.471Z,18.1
2023-05-10T15:10:59.164Z,18
2023-05-10T15:15:05.712Z,17.8
2023-05-10T15:17:07.539Z,17.6
2023-05-10T15:18:10.120Z,17.5
2023-05-10T15:22:13.667Z,17.2
2023-05-10T15:30:24.070Z,16.7
2023-05-10T15:32:25.887Z,16.5
2023-05-10T15:44:39.998Z,15.8
2023-05-10T15:46:41.859Z,15.8
2023-05-10T15:48:43.616Z,15.8
2023-05-10T15:56:54.099Z,15.7
2023-05-10T16:07:03.140Z,15.8
2023-05-10T16:09:08.166Z,16
2023-05-10T16:13:11.791Z,15.9
2023-05-10T16:14:14.328Z,16
2023-05-10T16:16:16.172Z,15.9
2023-05-10T16:18:18.083Z,15.7
2023-05-10T16:20:19.711Z,15.8
2023-05-10T16:22:24.777Z,16.1
2023-05-10T16:26:28.388Z,16
2023-05-10T16:28:30.178Z,15.9
2023-05-10T16:30:32.325Z,16.2
2023-05-10T16:34:35.583Z,16.2
2023-05-10T17:01:05.527Z,16.4
2023-05-10T17:03:07.395Z,16.5
2023-05-10T17:07:14.207Z,16.8
2023-05-10T17:09:15.996Z,16.6
2023-05-10T17:11:44.623Z,16.7
2023-05-10T17:13:46.417Z,16.6
2023-05-10T17:17:53.347Z,16.9
2023-05-10T17:21:56.910Z,16.7
2023-05-10T17:26:01.771Z,16.2
2023-05-10T17:30:04.134Z,16.1
2023-05-10T17:38:14.587Z,16.3
2023-05-10T17:40:16.388Z,16.5
2023-05-10T17:42:18.182Z,16.5
2023-05-10T17:50:28.684Z,16.1
2023-05-10T17:54:32.253Z,16.1
2023-05-10T17:56:34.091Z,16.2
2023-05-10T17:58:35.882Z,16.3
2023-05-10T18:00:40.910Z,16.1
2023-05-10T18:04:44.631Z,16.1
2023-05-10T18:05:47.101Z,16
2023-05-10T18:07:48.838Z,16
2023-05-10T18:09:50.628Z,16
2023-05-10T18:11:52.474Z,15.9
2023-05-10T18:13:57.518Z,15.6
2023-05-10T18:15:59.289Z,15.8
2023-05-10T18:18:01.137Z,15.9
2023-05-10T18:22:04.723Z,15.8
2023-05-10T18:26:08.323Z,15.7
2023-05-10T18:28:13.386Z,15.7
2023-05-10T18:32:16.964Z,15.5
2023-05-10T18:34:18.768Z,15.5
2023-05-10T18:40:24.182Z,15.7
2023-05-10T18:42:29.242Z,15.6
2023-05-10T18:44:31.016Z,15.7
2023-05-10T18:46:32.925Z,15.7
2023-05-10T18:48:34.629Z,15.6
2023-05-10T18:50:36.448Z,15.6
2023-05-10T18:52:38.255Z,15.6
2023-05-10T18:54:40.029Z,15.5
2023-05-10T18:56:45.113Z,15.4
2023-05-10T19:00:48.680Z,15.5
2023-05-10T19:03:53.009Z,15.3
2023-05-10T19:05:54.783Z,15.3
2023-05-10T19:07:58.149Z,15.3
2023-05-10T19:12:04.975Z,15.2
2023-05-10T19:18:10.392Z,15.1
2023-05-10T19:22:13.978Z,15.1
2023-05-10T19:24:18.991Z,14.9
2023-05-10T19:26:20.936Z,15.1
2023-05-10T19:28:22.601Z,14.9
2023-05-10T19:30:24.465Z,15
2023-05-10T19:32:26.251Z,14.9
2023-05-10T19:34:27.991Z,15.1
2023-05-10T19:36:29.786Z,14.9
2023-05-10T19:38:34.839Z,15.1
2023-05-10T19:40:36.625Z,14.9
2023-05-10T19:44:40.185Z,14.9
2023-05-10T19:57:56.777Z,14.8
2023-05-10T19:59:58.577Z,14.8
2023-05-10T20:02:00.366Z,14.8
2023-05-10T20:04:02.290Z,14.7
2023-05-10T20:06:07.195Z,14.6
2023-05-10T20:08:08.993Z,14.8
2023-05-10T20:12:12.596Z,14.9
2023-05-10T20:20:23.045Z,14.9
2023-05-10T20:22:25.335Z,14.9
2023-05-10T20:24:26.656Z,14.9
2023-05-10T20:26:28.420Z,14.8
2023-05-10T20:28:30.242Z,14.8
2023-05-10T20:38:42.457Z,15
2023-05-10T20:52:58.269Z,14.6
2023-05-10T20:55:26.930Z,14.6
2023-05-10T20:59:30.513Z,14.6
2023-05-10T21:07:41.005Z,14.7
2023-05-10T21:09:42.770Z,14.5
2023-05-10T21:11:44.574Z,14.6
2023-05-10T21:13:46.402Z,14.6
2023-05-10T21:15:51.500Z,14.5
2023-05-10T21:17:53.241Z,14.5
2023-05-10T21:19:55.023Z,14.4
2023-05-10T21:21:56.814Z,14.5
2023-05-10T21:23:58.650Z,14.6
2023-05-10T21:26:00.443Z,14.5
2023-05-10T21:34:10.850Z,14.5
2023-05-10T21:36:12.694Z,14.4
2023-05-10T21:38:14.470Z,14.3
2023-05-10T21:40:16.640Z,14.3
2023-05-10T21:44:23.100Z,14.4
2023-05-10T21:46:24.936Z,14.5
2023-05-10T21:48:26.717Z,14.4
2023-05-10T21:49:29.221Z,14.5
2023-05-10T21:51:31.019Z,14.3
2023-05-10T21:53:32.821Z,14.5
2023-05-10T21:55:34.597Z,14.3
2023-05-10T21:57:39.630Z,14.3
2023-05-10T21:59:41.444Z,14.3
2023-05-10T22:01:43.244Z,14.2
2023-05-10T22:03:45.080Z,14.2
2023-05-10T22:05:46.812Z,14.1
2023-05-10T22:07:48.634Z,14.3
2023-05-10T22:15:59.030Z,14.2
2023-05-10T22:18:00.902Z,14.3
2023-05-10T22:20:02.587Z,14.1
2023-05-10T22:22:04.385Z,14.2
2023-05-10T22:24:06.190Z,14.2
2023-05-10T22:26:11.862Z,14.2
2023-05-10T22:38:22.615Z,14.1
2023-05-10T22:40:27.657Z,14.1
2023-05-10T22:42:29.441Z,14.2
2023-05-10T22:44:31.207Z,14.2
2023-05-10T22:45:33.728Z,14.2
2023-05-10T22:47:35.569Z,14.2
2023-05-10T22:49:37.307Z,14.1
2023-05-10T22:51:39.108Z,14.1
2023-05-10T22:53:44.140Z,14.1
2023-05-10T22:55:45.933Z,14.1
2023-05-10T22:57:47.749Z,14.1
2023-05-10T22:59:49.515Z,14.2
2023-05-10T23:01:51.355Z,14
2023-05-10T23:03:53.096Z,14
2023-05-10T23:05:54.873Z,13.9
2023-05-10T23:07:59.920Z,14
2023-05-10T23:12:03.505Z,13.8
2023-05-10T23:14:05.309Z,13.9
2023-05-10T23:16:07.094Z,13.8
2023-05-10T23:18:08.964Z,13.8
2023-05-10T23:20:10.664Z,13.9
2023-05-10T23:22:15.677Z,13.9
2023-05-10T23:34:26.470Z,13.8
2023-05-10T23:38:33.315Z,13.8
2023-05-10T23:41:37.600Z,13.9
2023-05-10T23:45:41.320Z,13.8
2023-05-10T23:47:43.003Z,13.8
2023-05-10T23:49:48.012Z,13.8
2023-05-10T23:51:49.785Z,13.8
2023-05-10T23:53:51.579Z,13.8
2023-05-10T23:55:53.383Z,13.8
2023-05-10T23:57:55.162Z,13.8
2023-05-10T23:59:56.968Z,13.8
